createdAt,value
2022-10-11T00:01:18.662Z,75.92
2022-10-11T00:03:45.143Z,75.98
2022-10-11T00:06:11.614Z,75.50
2022-10-11T00:08:38.158Z,74.93
2022-10-11T00:11:06.635Z,73.44
2022-10-11T00:13:33.449Z,75.17
2022-10-11T00:15:59.959Z,75.57
2022-10-11T00:18:26.430Z,75.98
2022-10-11T00:21:04.780Z,73.62
2022-10-11T00:23:31.689Z,77.13
2022-10-11T00:26:03.123Z,76.52
2022-10-11T00:28:30.157Z,76.94
2022-10-11T00:30:57.099Z,77.20
2022-10-11T00:33:23.578Z,75.55
2022-10-11T00:35:50.044Z,75.32
2022-10-11T00:38:17.283Z,76.27
2022-10-11T00:40:44.823Z,77.18
2022-10-11T00:43:19.203Z,77.54
2022-10-11T00:45:57.568Z,77.24
2022-10-11T00:48:38.902Z,76.71
2022-10-11T00:51:14.023Z,77.16
2022-10-11T00:53:41.593Z,75.91
2022-10-11T00:56:17.260Z,75.63
2022-10-11T00:58:44.013Z,76.01
2022-10-11T01:01:11.002Z,76.70
2022-10-11T01:03:39.382Z,75.25
2022-10-11T01:06:06.406Z,77.03
2022-10-11T01:08:34.035Z,75.14
2022-10-11T01:11:00.965Z,76.80
2022-10-11T01:13:40.411Z,77.23
2022-10-11T01:16:18.256Z,76.93
2022-10-11T01:18:57.014Z,77.41
2022-10-11T01:21:44.571Z,78.03
2022-10-11T01:24:19.887Z,76.61
2022-10-11T01:27:25.491Z,77.42
2022-10-11T01:30:18.754Z,77.64
2022-10-11T01:33:03.310Z,74.88
2022-10-11T01:35:52.753Z,78.14
2022-10-11T01:38:46.658Z,78.13
2022-10-11T01:41:25.473Z,77.51
2022-10-11T01:43:55.433Z,76.82
2022-10-11T01:46:23.150Z,78.22
2022-10-11T01:48:55.368Z,77.90
2022-10-11T01:51:27.069Z,79.03
2022-10-11T01:53:53.497Z,79.40
2022-10-11T01:56:22.810Z,79.74
2022-10-11T01:59:17.365Z,79.63
2022-10-11T02:01:52.628Z,79.55
2022-10-11T02:04:44.434Z,78.72
2022-10-11T02:07:28.023Z,76.62
2022-10-11T02:09:58.142Z,77.53
2022-10-11T02:12:34.277Z,77.96
2022-10-11T02:15:06.773Z,78.13
2022-10-11T02:17:36.432Z,77.70
2022-10-11T02:20:08.967Z,75.21
2022-10-11T02:22:39.146Z,76.88
2022-10-11T02:25:10.572Z,76.99
2022-10-11T02:27:38.644Z,76.75
2022-10-11T02:30:07.690Z,75.98
2022-10-11T02:32:36.499Z,78.78
2022-10-11T02:35:03.221Z,79.58
2022-10-11T02:37:41.377Z,80.49
2022-10-11T02:40:27.591Z,80.04
2022-10-11T02:43:10.473Z,79.94
2022-10-11T02:45:40.881Z,79.66
2022-10-11T02:48:10.122Z,79.84
2022-10-11T02:50:39.975Z,79.12
2022-10-11T02:53:06.931Z,77.31
2022-10-11T02:55:33.449Z,77.21
2022-10-11T02:57:59.900Z,76.42
2022-10-11T03:00:26.454Z,76.47
2022-10-11T03:02:52.890Z,76.45
2022-10-11T03:05:19.764Z,75.35
2022-10-11T03:07:46.285Z,76.21
2022-10-11T03:10:12.796Z,76.28
2022-10-11T03:12:39.270Z,75.85
2022-10-11T03:15:06.247Z,76.53
2022-10-11T03:17:36.555Z,76.50
2022-10-11T03:20:05.537Z,75.88
2022-10-11T03:22:31.968Z,75.87
2022-10-11T03:25:03.339Z,75.87
2022-10-11T03:27:30.402Z,76.02
2022-10-11T03:29:57.730Z,75.90
2022-10-11T03:32:24.240Z,76.20
2022-10-11T03:34:50.700Z,75.72
2022-10-11T03:37:17.221Z,75.78
2022-10-11T03:39:45.480Z,75.42
2022-10-11T03:42:13.329Z,75.50
2022-10-11T03:44:39.846Z,75.70
2022-10-11T03:47:06.410Z,75.40
2022-10-11T03:49:32.852Z,75.48
2022-10-11T03:51:59.351Z,75.55
2022-10-11T03:54:26.160Z,75.93
2022-10-11T03:56:52.916Z,75.77
2022-10-11T03:59:19.389Z,75.32
2022-10-11T04:01:45.861Z,76.38
2022-10-11T04:04:12.332Z,75.31
2022-10-11T04:06:38.798Z,75.48
2022-10-11T04:09:05.256Z,75.62
2022-10-11T04:11:31.712Z,75.51
2022-10-11T04:13:58.274Z,75.31
2022-10-11T04:16:24.936Z,75.53
2022-10-11T04:18:51.426Z,76.14
2022-10-11T04:21:17.964Z,75.93
2022-10-11T04:23:44.578Z,76.40
2022-10-11T04:26:11.042Z,74.57
2022-10-11T04:28:37.566Z,73.39
2022-10-11T04:31:05.171Z,73.01
2022-10-11T04:33:31.674Z,72.68
2022-10-11T04:35:58.268Z,72.30
2022-10-11T04:38:24.720Z,72.26
2022-10-11T04:40:51.238Z,72.06
2022-10-11T04:43:18.897Z,71.67
2022-10-11T04:45:45.665Z,71.59
2022-10-11T04:48:12.121Z,71.37
2022-10-11T04:50:38.575Z,71.10
2022-10-11T04:53:07.561Z,70.76
2022-10-11T04:55:34.049Z,71.32
2022-10-11T04:58:02.087Z,70.76
2022-10-11T05:00:28.650Z,70.62
2022-10-11T05:02:55.241Z,70.60
2022-10-11T05:05:24.298Z,70.72
2022-10-11T05:07:51.432Z,70.89
2022-10-11T05:10:17.990Z,70.88
2022-10-11T05:12:44.442Z,70.75
2022-10-11T05:15:10.945Z,70.98
2022-10-11T05:17:37.401Z,70.88
2022-10-11T05:20:04.187Z,71.90
2022-10-11T05:22:30.630Z,72.08
2022-10-11T05:24:57.086Z,72.29
2022-10-11T05:27:23.536Z,71.44
2022-10-11T05:29:49.970Z,71.65
2022-10-11T05:32:16.479Z,71.66
2022-10-11T05:34:42.985Z,71.96
2022-10-11T05:37:09.691Z,71.54
2022-10-11T05:39:36.202Z,71.63
2022-10-11T05:42:04.594Z,71.84
2022-10-11T05:44:34.102Z,71.38
2022-10-11T05:47:00.554Z,72.07
2022-10-11T05:49:27.041Z,71.35
2022-10-11T05:51:53.518Z,71.75
2022-10-11T05:54:20.089Z,71.84
2022-10-11T05:56:46.546Z,71.25
2022-10-11T05:59:12.999Z,71.23
2022-10-11T06:01:39.593Z,71.26
2022-10-11T06:04:06.450Z,71.65
2022-10-11T06:06:33.243Z,72.44
2022-10-11T06:08:59.927Z,72.18
2022-10-11T06:11:27.655Z,71.68
2022-10-11T06:13:55.921Z,71.77
2022-10-11T06:16:22.370Z,71.88
2022-10-11T06:18:49.054Z,71.75
2022-10-11T06:21:15.536Z,71.37
2022-10-11T06:23:42.042Z,71.38
2022-10-11T06:26:09.817Z,71.80
2022-10-11T06:28:37.674Z,72.85
2022-10-11T06:31:05.731Z,74.84
2022-10-11T06:33:32.560Z,73.58
2022-10-11T06:36:01.038Z,73.95
2022-10-11T06:38:27.567Z,73.72
2022-10-11T06:40:54.097Z,71.99
2022-10-11T06:43:20.924Z,72.44
2022-10-11T06:45:47.374Z,72.51
2022-10-11T06:48:13.865Z,73.69
2022-10-11T06:50:59.194Z,76.06
2022-10-11T06:53:27.366Z,76.44
2022-10-11T06:55:53.837Z,74.08
2022-10-11T06:58:20.283Z,75.55
2022-10-11T07:00:46.790Z,76.61
2022-10-11T07:03:13.879Z,76.80
2022-10-11T07:05:40.407Z,76.84
2022-10-11T07:08:06.873Z,77.02
2022-10-11T07:10:35.331Z,78.18
2022-10-11T07:13:01.776Z,78.79
2022-10-11T07:15:28.249Z,78.00
2022-10-11T07:17:54.722Z,78.13
2022-10-11T07:20:21.182Z,76.47
2022-10-11T07:22:48.180Z,76.28
2022-10-11T07:25:14.660Z,75.96
2022-10-11T07:27:41.114Z,75.83
2022-10-11T07:30:08.050Z,77.65
2022-10-11T07:32:34.504Z,77.29
2022-10-11T07:35:00.988Z,78.15
2022-10-11T07:37:27.570Z,77.81
2022-10-11T07:39:54.192Z,78.04
2022-10-11T07:42:22.017Z,77.92
2022-10-11T07:44:48.550Z,77.86
2022-10-11T07:47:15.067Z,77.20
2022-10-11T07:49:41.517Z,77.68
2022-10-11T07:52:08.069Z,75.25
2022-10-11T07:54:34.540Z,76.99
2022-10-11T07:57:01.024Z,74.33
2022-10-11T07:59:27.483Z,75.75
2022-10-11T08:01:54.019Z,74.63
2022-10-11T08:04:21.452Z,75.01
2022-10-11T08:06:52.455Z,74.92
2022-10-11T08:09:20.029Z,74.00
2022-10-11T08:11:46.464Z,75.03
2022-10-11T08:14:12.918Z,73.89
2022-10-11T08:16:39.674Z,73.24
2022-10-11T08:19:06.706Z,74.37
2022-10-11T08:21:33.864Z,74.61
2022-10-11T08:24:02.439Z,73.86
2022-10-11T08:26:29.059Z,73.87
2022-10-11T08:28:55.602Z,73.17
2022-10-11T08:31:22.164Z,72.76
2022-10-11T08:33:48.658Z,73.13
2022-10-11T08:36:15.198Z,73.27
2022-10-11T08:38:42.114Z,72.67
2022-10-11T08:41:39.026Z,71.86
2022-10-11T08:44:51.755Z,72.48
2022-10-11T08:47:28.894Z,71.79
2022-10-11T08:50:00.781Z,71.41
2022-10-11T08:52:34.759Z,70.78
2022-10-11T08:55:08.154Z,71.07
2022-10-11T08:57:37.214Z,70.66
2022-10-11T09:00:13.978Z,70.84
2022-10-11T09:03:08.533Z,71.44
2022-10-11T09:07:06.087Z,71.27
2022-10-11T09:10:06.528Z,70.55
2022-10-11T09:16:15.723Z,71.48
2022-10-11T09:19:08.279Z,70.94
2022-10-11T09:21:43.256Z,70.20
2022-10-11T09:24:47.422Z,67.82
2022-10-11T09:28:03.234Z,67.29
2022-10-11T09:30:30.949Z,67.74
2022-10-11T09:33:13.586Z,65.85
2022-10-11T09:35:47.237Z,67.26
2022-10-11T09:38:33.545Z,67.00
2022-10-11T09:41:13.226Z,64.04
2022-10-11T09:43:41.121Z,64.30
2022-10-11T09:46:36.861Z,65.90
2022-10-11T09:49:11.338Z,64.97
2022-10-11T09:51:40.456Z,64.45
2022-10-11T09:54:07.174Z,62.56
2022-10-11T09:56:39.944Z,61.35
2022-10-11T09:59:27.138Z,62.35
2022-10-11T10:02:12.521Z,61.93
2022-10-11T10:05:00.731Z,61.68
2022-10-11T10:07:29.123Z,62.82
2022-10-11T10:09:56.259Z,62.67
2022-10-11T10:12:26.869Z,61.92
2022-10-11T10:15:18.986Z,61.94
2022-10-11T10:17:50.733Z,62.65
2022-10-11T10:20:24.126Z,60.81
2022-10-11T10:22:51.812Z,59.95
2022-10-11T10:25:51.231Z,58.76
2022-10-11T10:28:47.728Z,61.51
2022-10-11T10:31:40.282Z,59.77
2022-10-11T10:34:37.614Z,61.98
2022-10-11T10:41:09.997Z,63.50
2022-10-11T10:43:39.148Z,64.54
2022-10-11T10:46:35.346Z,67.96
2022-10-11T11:00:24.696Z,57.36
2022-10-11T11:03:00.437Z,55.27
2022-10-11T11:05:44.864Z,55.91
2022-10-11T11:09:19.936Z,57.53
2022-10-11T11:15:32.567Z,51.41
2022-10-11T11:18:37.522Z,56.76
2022-10-11T11:21:25.491Z,63.85
2022-10-11T11:24:56.605Z,54.67
2022-10-11T11:27:41.896Z,58.91
2022-10-11T11:30:33.494Z,64.19
2022-10-11T11:33:40.159Z,61.10
2022-10-11T11:36:43.469Z,63.35
2022-10-11T11:43:04.043Z,55.67
2022-10-11T11:46:06.607Z,56.22
2022-10-11T11:48:43.194Z,55.14
2022-10-11T11:51:53.185Z,55.64
2022-10-11T11:54:56.026Z,55.08
2022-10-11T11:58:23.041Z,50.88
2022-10-11T12:01:49.367Z,55.12
2022-10-11T12:05:06.463Z,52.87
2022-10-11T12:08:06.529Z,59.01
2022-10-11T12:11:31.683Z,54.18
2022-10-11T12:14:59.451Z,53.76
2022-10-11T12:25:43.858Z,55.27
2022-10-11T12:32:40.739Z,52.82
2022-10-11T12:40:48.618Z,52.68
2022-10-11T12:44:39.915Z,51.21
2022-10-11T12:46:58.685Z,54.20
2022-10-11T12:50:05.166Z,62.76
2022-10-11T12:53:36.123Z,52.35
2022-10-11T12:56:43.837Z,58.97
2022-10-11T13:00:18.419Z,51.75
2022-10-11T13:07:39.851Z,53.19
2022-10-11T13:10:54.479Z,49.36
2022-10-11T13:13:57.681Z,50.91
2022-10-11T13:16:28.909Z,62.44
2022-10-11T13:19:00.228Z,54.22
2022-10-11T13:21:28.864Z,52.63
2022-10-11T13:23:59.139Z,50.24
2022-10-11T13:26:28.123Z,56.63
2022-10-11T13:28:55.329Z,50.96
2022-10-11T13:31:24.664Z,54.51
2022-10-11T13:33:57.183Z,53.16
2022-10-11T13:36:27.017Z,52.52
2022-10-11T13:38:58.440Z,51.89
2022-10-11T13:41:27.396Z,53.54
2022-10-11T13:43:56.305Z,55.12
2022-10-11T13:46:26.162Z,54.53
2022-10-11T13:49:00.974Z,60.49
2022-10-11T13:51:37.086Z,55.46
2022-10-11T13:54:05.826Z,58.37
2022-10-11T13:56:44.187Z,55.48
2022-10-11T13:59:25.397Z,59.03
2022-10-11T14:02:00.111Z,54.69
2022-10-11T14:04:29.731Z,60.60
2022-10-11T14:07:02.576Z,53.95
2022-10-11T14:09:33.767Z,59.76
2022-10-11T14:12:30.684Z,51.20
2022-10-11T14:14:58.311Z,59.59
2022-10-11T14:17:37.648Z,58.23
2022-10-11T14:20:15.954Z,59.26
2022-10-11T14:22:43.040Z,56.84
2022-10-11T14:25:09.984Z,54.86
2022-10-11T14:27:36.587Z,52.77
2022-10-11T14:30:24.598Z,53.04
2022-10-11T14:33:01.215Z,53.08
2022-10-11T14:35:31.823Z,56.41
2022-10-11T14:37:58.557Z,59.13
2022-10-11T14:40:27.881Z,59.60
2022-10-11T14:42:55.086Z,59.20
2022-10-11T14:45:21.598Z,53.89
2022-10-11T14:47:48.579Z,59.51
2022-10-11T14:50:40.714Z,57.32
2022-10-11T14:53:10.867Z,59.05
2022-10-11T14:55:39.261Z,60.32
2022-10-11T14:58:06.499Z,59.83
2022-10-11T15:00:34.062Z,59.18
2022-10-11T15:03:00.638Z,59.57
2022-10-11T15:09:37.692Z,59.73
2022-10-11T15:36:44.205Z,58.70
2022-10-11T15:55:42.689Z,61.34
2022-10-11T16:51:57.818Z,61.48
2022-10-11T16:55:09.548Z,61.38
2022-10-11T17:31:20.480Z,62.21
2022-10-11T17:33:47.566Z,62.42
2022-10-11T17:36:17.444Z,62.18
2022-10-11T17:38:44.040Z,62.27
2022-10-11T17:41:11.458Z,62.44
2022-10-11T17:43:38.176Z,62.59
2022-10-11T17:46:06.328Z,62.62
2022-10-11T17:48:36.487Z,63.31
2022-10-11T17:51:11.738Z,63.35
2022-10-11T17:53:38.348Z,63.03
2022-10-11T17:56:11.014Z,62.43
2022-10-11T17:58:38.222Z,62.87
2022-10-11T18:01:11.373Z,63.14
2022-10-11T18:03:38.285Z,62.87
2022-10-11T18:06:07.020Z,63.26
2022-10-11T18:08:39.775Z,63.39
2022-10-11T18:11:16.308Z,63.61
2022-10-11T18:13:46.208Z,63.14
2022-10-11T18:16:14.959Z,62.58
2022-10-11T18:18:42.343Z,63.45
2022-10-11T18:21:09.049Z,63.58
2022-10-11T18:23:37.342Z,63.53
2022-10-11T18:26:14.899Z,63.67
2022-10-11T18:28:42.238Z,63.95
2022-10-11T18:31:13.743Z,63.78
2022-10-11T18:33:40.991Z,63.92
2022-10-11T18:36:09.310Z,64.21
2022-10-11T18:38:37.953Z,63.79
2022-10-11T18:41:09.099Z,64.35
2022-10-11T18:43:36.016Z,64.07
2022-10-11T18:46:07.730Z,64.29
2022-10-11T18:48:34.865Z,63.76
2022-10-11T18:51:14.356Z,64.44
2022-10-11T18:53:41.624Z,64.54
2022-10-11T18:56:10.431Z,64.08
2022-10-11T18:58:38.235Z,63.90
2022-10-11T19:01:12.523Z,63.69
2022-10-11T19:03:39.183Z,64.02
2022-10-11T19:06:09.311Z,64.04
2022-10-11T19:08:35.922Z,67.13
2022-10-11T19:11:10.620Z,66.99
2022-10-11T19:13:37.300Z,66.10
2022-10-11T19:16:15.856Z,65.24
2022-10-11T19:18:44.481Z,64.50
2022-10-11T19:21:13.302Z,64.39
2022-10-11T19:23:45.336Z,64.71
2022-10-11T19:26:18.233Z,64.63
2022-10-11T19:28:45.416Z,64.97
2022-10-11T19:31:16.231Z,64.61
2022-10-11T19:33:45.163Z,64.33
2022-10-11T19:36:16.536Z,65.31
2022-10-11T19:38:44.051Z,65.14
2022-10-11T19:41:11.062Z,65.39
2022-10-11T19:43:37.600Z,64.92
2022-10-11T19:46:06.602Z,65.02
2022-10-11T19:48:37.590Z,65.45
2022-10-11T19:51:06.697Z,65.30
2022-10-11T19:53:33.529Z,65.31
2022-10-11T19:56:06.810Z,65.71
2022-10-11T19:58:33.746Z,65.68
2022-10-11T20:01:21.959Z,65.77
2022-10-11T20:03:51.119Z,64.90
2022-10-11T20:06:19.799Z,64.89
2022-10-11T20:08:52.648Z,65.50
2022-10-11T20:11:26.776Z,65.77
2022-10-11T20:13:54.048Z,65.63
2022-10-11T20:16:23.053Z,65.08
2022-10-11T20:18:49.498Z,65.64
2022-10-11T20:21:18.708Z,65.87
2022-10-11T20:23:46.980Z,65.98
2022-10-11T20:26:24.102Z,65.47
2022-10-11T20:28:55.960Z,64.87
2022-10-11T20:31:34.335Z,65.80
2022-10-11T20:34:04.054Z,65.51
2022-10-11T20:36:32.000Z,64.77
2022-10-11T20:38:59.966Z,65.84
2022-10-11T20:41:36.921Z,65.53
2022-10-11T20:44:04.506Z,65.10
2022-10-11T20:46:33.589Z,65.70
2022-10-11T20:49:05.633Z,66.34
2022-10-11T20:51:34.114Z,66.38
2022-10-11T20:54:01.975Z,65.66
2022-10-11T20:56:29.599Z,65.70
2022-10-11T20:58:58.168Z,66.08
2022-10-11T21:01:34.565Z,65.79
2022-10-11T21:04:01.742Z,65.33
2022-10-11T21:06:29.621Z,65.50
2022-10-11T21:08:57.066Z,66.36
2022-10-11T21:11:27.607Z,66.39
2022-10-11T21:13:56.193Z,65.78
2022-10-11T21:16:22.720Z,67.18
2022-10-11T21:18:53.938Z,66.12
2022-10-11T21:21:20.686Z,66.13
2022-10-11T21:23:47.591Z,66.69
2022-10-11T21:26:17.913Z,65.78
2022-10-11T21:28:45.213Z,64.94
2022-10-11T21:31:17.767Z,66.31
2022-10-11T21:33:44.354Z,65.88
2022-10-11T21:36:22.106Z,66.56
2022-10-11T21:38:49.275Z,66.66
2022-10-11T21:41:20.664Z,66.63
2022-10-11T21:43:47.404Z,66.22
2022-10-11T21:46:23.071Z,66.69
2022-10-11T21:48:50.194Z,67.06
2022-10-11T21:51:25.536Z,65.87
2022-10-11T21:53:52.473Z,66.08
2022-10-11T21:56:19.409Z,65.71
2022-10-11T21:58:50.042Z,67.93
2022-10-11T22:01:17.987Z,70.65
2022-10-11T22:03:44.749Z,70.31
2022-10-11T22:06:11.374Z,71.47
2022-10-11T22:08:38.346Z,69.14
2022-10-11T22:11:05.815Z,67.21
2022-10-11T22:13:34.049Z,68.49
2022-10-11T22:16:05.804Z,68.40
2022-10-11T22:18:33.638Z,67.23
2022-10-11T22:21:06.913Z,67.33
2022-10-11T22:23:34.232Z,65.86
2022-10-11T22:26:09.239Z,67.19
2022-10-11T22:28:36.470Z,67.27
2022-10-11T22:31:05.145Z,67.59
2022-10-11T22:33:31.977Z,67.27
2022-10-11T22:36:00.326Z,66.28
2022-10-11T22:38:27.357Z,67.20
2022-10-11T22:40:54.810Z,67.45
2022-10-11T22:43:21.241Z,67.78
2022-10-11T22:45:47.998Z,66.75
2022-10-11T22:48:14.644Z,66.18
2022-10-11T22:50:41.536Z,68.36
2022-10-11T22:53:08.612Z,68.93
2022-10-11T22:55:35.990Z,67.65
2022-10-11T22:58:02.450Z,66.82
2022-10-11T23:00:28.933Z,67.76
2022-10-11T23:02:55.673Z,66.64
2022-10-11T23:05:22.394Z,68.13
2022-10-11T23:07:49.396Z,66.92
2022-10-11T23:10:16.279Z,67.42
2022-10-11T23:12:43.366Z,66.78
2022-10-11T23:15:10.518Z,66.99
2022-10-11T23:17:37.196Z,67.24
2022-10-11T23:20:04.963Z,66.73
2022-10-11T23:22:31.421Z,66.57
2022-10-11T23:24:57.893Z,67.20
2022-10-11T23:27:24.398Z,66.90
2022-10-11T23:29:50.874Z,66.14
